Time;durP1;ratioP1;P1;durP2;ratioP2;P2;SDS_P1;SDS_P2;PMS_P1;PMS_P2;Temp;Humidity;BMP_temperature;BMP_pressure;BME280_temperature;BME280_humidity;BME280_pressure;Samples;Min_cycle;Max_cycle;Signal;HPM_P1;HPM_P2
2022/02/22 00:05:01;;;;;;;314.85;293.02;;;;;;;6.78;75.74;99853.69;15654763;28;20510;-60
2022/02/22 00:12:40;;;;;;;298.70;277.65;;;;;;;6.62;75.89;99870.81;15647125;28;20631;-60
2022/02/22 00:20:16;;;;;;;302.10;281.63;;;;;;;6.71;76.60;99881.09;15670044;28;20132;-60
2022/02/22 00:27:51;;;;;;;318.83;292.90;;;;;;;6.98;76.62;99902.91;15653784;28;20048;-61
2022/02/22 00:35:37;;;;;;;445.23;403.75;;;;;;;6.76;77.92;99917.78;15638476;28;20053;-60
2022/02/22 00:43:10;;;;;;;463.52;415.83;;;;;;;7.00;77.06;99936.72;15670695;28;20485;-61
2022/02/22 00:50:47;;;;;;;336.05;301.83;;;;;;;6.98;77.28;99949.25;15671234;28;20045;-61
2022/02/22 00:58:19;;;;;;;403.42;366.95;;;;;;;7.15;78.21;99946.47;15652404;28;20143;-60
2022/02/22 01:06:04;;;;;;;1231.82;712.95;;;;;;;7.17;78.76;99960.81;15652127;28;20528;-60
2022/02/22 01:13:36;;;;;;;1999.90;999.90;;;;;;;6.81;79.22;99967.53;15651773;28;20049;-61
2022/02/22 01:21:09;;;;;;;442.38;395.08;;;;;;;7.08;77.47;99980.25;15668620;28;20474;-60
2022/02/22 01:28:42;;;;;;;376.92;345.15;;;;;;;7.15;77.03;99986.13;15651266;28;20110;-59
2022/02/22 01:36:22;;;;;;;261.10;234.87;;;;;;;7.26;76.24;100006.03;15619086;28;20201;-59
2022/02/22 01:44:39;;;;;;;461.98;411.17;;;;;;;6.91;78.30;100014.38;15644220;28;20048;-60
2022/02/22 01:52:14;;;;;;;817.50;541.00;;;;;;;7.04;79.07;100029.22;15650927;28;20033;-61
2022/02/22 02:00:06;;;;;;;1233.80;714.42;;;;;;;7.35;78.85;100031.00;15668292;28;20094;-60
2022/02/22 02:07:46;;;;;;;401.08;361.05;;;;;;;7.42;78.70;100036.88;15654418;28;20448;-61
2022/02/22 02:15:18;;;;;;;1615.78;855.13;;;;;;;7.53;78.10;100061.19;15669070;28;20049;-61
2022/02/22 02:23:04;;;;;;;546.90;495.27;;;;;;;7.62;77.73;100077.03;15663701;28;20095;-62
2022/02/22 02:30:39;;;;;;;1590.43;831.35;;;;;;;7.72;77.09;100090.56;15654861;28;20076;-61
2022/02/22 02:38:12;;;;;;;658.83;487.00;;;;;;;7.16;76.47;100101.50;15644068;28;20401;-61
2022/02/22 02:45:45;;;;;;;370.05;345.15;;;;;;;7.22;76.48;100119.66;15643396;28;20080;-61
2022/02/22 02:53:18;;;;;;;487.00;439.00;;;;;;;7.20;76.77;100129.44;15643073;28;20102;-61
2022/02/22 03:00:50;;;;;;;;;;;;;;;7.22;77.58;100125.19;15677413;28;20065;-61
2022/02/22 03:08:28;;;;;;;383.17;354.05;;;;;;;7.38;77.63;100142.16;15658719;28;20024;-61
2022/02/22 03:16:01;;;;;;;794.72;519.10;;;;;;;6.99;79.01;100145.06;15635252;28;20517;-60
2022/02/22 03:23:40;;;;;;;1049.90;628.42;;;;;;;7.02;80.05;100167.44;15637498;28;20052;-61
2022/02/22 03:31:12;;;;;;;605.58;483.55;;;;;;;6.86;79.75;100180.91;15639476;28;20294;-62
2022/02/22 03:38:46;;;;;;;410.10;374.50;;;;;;;7.35;77.72;100195.56;15628956;28;20041;-60
2022/02/22 03:46:19;;;;;;;469.40;389.80;;;;;;;7.08;76.13;100193.03;15656673;28;20087;-62
2022/02/22 03:54:16;;;;;;;662.77;451.37;;;;;;;6.97;75.30;100213.91;15673413;28;20041;-60
2022/02/22 04:01:50;;;;;;;451.92;407.08;;;;;;;6.89;73.81;100252.41;15656972;28;20132;-60
2022/02/22 04:09:23;;;;;;;218.90;201.43;;;;;;;6.95;71.13;100266.94;15644967;28;20049;-62
2022/02/22 04:25:11;;;;;;;228.00;207.77;;;;;;;6.87;69.30;100299.03;15672954;28;20033;-62
2022/02/22 04:32:46;;;;;;;184.40;167.77;;;;;;;6.65;68.90;100312.94;15657185;28;20080;-61
2022/02/22 04:40:34;;;;;;;406.55;313.73;;;;;;;6.47;68.06;100341.69;15654399;28;20049;-61
2022/02/22 04:48:10;;;;;;;285.33;263.02;;;;;;;6.68;67.08;100345.59;15700647;28;20044;-61
2022/02/22 04:55:55;;;;;;;237.77;220.07;;;;;;;6.71;67.04;100350.50;15682705;28;20053;-60
2022/02/22 05:03:28;;;;;;;301.23;274.90;;;;;;;6.64;66.27;100378.66;15670951;28;20569;-61
2022/02/22 05:11:02;;;;;;;281.00;256.10;;;;;;;6.75;65.69;100401.41;15670540;28;20056;-61
2022/02/22 05:18:46;;;;;;;259.38;239.80;;;;;;;6.72;65.33;100410.34;15670121;28;20045;-61
2022/02/22 05:26:29;;;;;;;280.88;255.65;;;;;;;6.58;65.45;100427.06;15621962;28;20046;-61
2022/02/22 05:34:02;;;;;;;248.00;224.30;;;;;;;6.51;64.51;100443.28;15666772;28;20112;-62
2022/02/22 05:42:15;;;;;;;464.93;403.17;;;;;;;6.48;65.36;100437.56;15664793;28;20669;-61
2022/02/22 05:49:50;;;;;;;226.80;202.75;;;;;;;6.47;65.30;100458.09;15672135;28;20049;-62
2022/02/22 06:06:42;;;;;;;319.98;296.38;;;;;;;6.48;66.04;100493.81;15670477;28;20129;-61
2022/02/22 06:14:55;;;;;;;343.08;308.55;;;;;;;6.45;65.82;100507.47;15685958;28;20043;-62
2022/02/22 06:22:59;;;;;;;407.83;378.05;;;;;;;6.80;64.70;100525.28;15663856;28;20480;-62
2022/02/22 06:30:51;;;;;;;307.88;283.52;;;;;;;6.58;65.72;100539.91;15622120;28;20125;-61
2022/02/22 06:38:26;;;;;;;164.25;150.15;;;;;;;6.47;66.51;100552.34;15661166;28;20589;-62
2022/02/22 06:46:04;;;;;;;153.85;141.75;;;;;;;6.55;66.91;100559.91;15679375;28;20273;-62
2022/02/22 06:53:38;;;;;;;208.77;190.57;;;;;;;6.36;67.21;100579.44;15660628;28;20044;-62
2022/02/22 07:10:11;;;;;;;501.02;378.05;;;;;;;6.40;67.05;100615.69;15677976;28;20071;-61
2022/02/22 07:27:24;;;;;;;368.77;331.05;;;;;;;6.76;65.82;100630.44;15663252;28;20079;-59
2022/02/22 07:43:48;;;;;;;370.02;336.98;;;;;;;7.82;62.18;100677.16;15648985;28;20052;-61
2022/02/22 08:10:01;;;;;;;227.30;207.52;;;;;;;9.03;59.83;100709.53;15681368;22;20450;-63
2022/02/22 08:17:57;;;;;;;395.27;358.15;;;;;;;7.58;63.22;100731.34;15592687;28;20041;-62
2022/02/22 08:25:41;;;;;;;457.17;409.27;;;;;;;7.47;64.10;100753.78;15663430;28;20446;-63
2022/02/22 08:33:17;;;;;;;475.60;425.73;;;;;;;7.42;63.30;100756.69;15642202;28;20045;-62
2022/02/22 08:40:58;;;;;;;294.65;266.25;;;;;;;7.21;64.63;100772.13;15604356;28;20167;-64
2022/02/22 08:48:44;;;;;;;416.23;376.35;;;;;;;7.31;65.44;100787.75;15581058;28;20051;-63
2022/02/22 08:56:55;;;;;;;195.95;180.77;;;;;;;9.08;62.30;100773.44;15616112;28;20422;-64
2022/02/22 09:20:59;;;;;;;311.40;287.63;;;;;;;9.08;60.26;100802.09;14998590;27;25411871;-60
2022/02/22 09:28:38;;;;;;;504.35;359.55;;;;;;;8.93;58.75;100816.41;15891975;28;20511;-62
2022/02/22 09:36:24;;;;;;;1999.90;999.90;;;;;;;11.20;53.40;100819.84;15870149;28;20539;-62
2022/02/22 09:44:09;;;;;;;1999.90;999.90;;;;;;;12.10;51.00;100831.53;15910874;28;20049;-61
2022/02/22 09:51:54;;;;;;;1999.90;999.90;;;;;;;11.73;50.43;100816.44;15885578;28;20062;-62
2022/02/22 09:59:41;;;;;;;1999.90;999.90;;;;;;;10.65;53.23;100856.97;15902841;28;20127;-61
2022/02/22 10:07:17;;;;;;;1999.90;999.90;;;;;;;11.53;51.52;100857.16;15880947;28;20108;-62
2022/02/22 10:14:55;;;;;;;1522.07;767.83;;;;;;;11.20;52.83;100878.50;15902945;28;20046;-61
2022/02/22 10:22:34;;;;;;;1999.90;999.90;;;;;;;11.29;51.43;100868.13;15886344;28;20039;-61
2022/02/22 10:30:23;;;;;;;1050.00;545.17;;;;;;;11.97;50.87;100890.50;15830926;28;20127;-61
2022/02/22 10:37:56;;;;;;;1999.90;999.90;;;;;;;12.19;50.39;100879.00;15792162;28;20091;-62
2022/02/22 10:45:33;;;;;;;153.32;108.75;;;;;;;9.88;54.46;100893.94;15777798;28;20051;-60
2022/02/22 10:53:12;;;;;;;1530.35;774.20;;;;;;;10.22;54.33;100898.81;15761339;28;20048;-62
2022/02/22 11:00:46;;;;;;;366.27;216.65;;;;;;;9.30;56.01;100893.06;15776924;28;20483;-62
2022/02/22 11:08:31;;;;;;;1999.90;999.90;;;;;;;10.25;54.01;100912.91;15790380;28;20582;-62
2022/02/22 11:16:17;;;;;;;746.45;527.33;;;;;;;9.39;58.35;100921.78;15833310;28;20040;-62
2022/02/22 11:24:02;;;;;;;1120.72;565.20;;;;;;;11.24;52.67;100935.34;15820948;28;20105;-62
2022/02/22 11:31:39;;;;;;;152.85;135.65;;;;;;;9.45;56.50;100948.34;15824045;28;20054;-62
2022/02/22 11:39:23;;;;;;;329.75;291.35;;;;;;;8.45;59.46;100960.91;15800288;28;20044;-61
2022/02/22 11:46:57;;;;;;;303.48;282.60;;;;;;;9.02;58.70;100978.72;15792430;28;20131;-60
2022/02/22 11:54:31;;;;;;;144.52;131.70;;;;;;;10.75;55.19;100979.44;15814953;28;20054;-62
2022/02/22 12:02:03;;;;;;;1999.90;999.90;;;;;;;9.92;55.66;100990.53;15812522;28;20122;-61
2022/02/22 12:09:43;;;;;;;271.83;248.18;;;;;;;9.82;57.25;100999.19;15814328;28;20248;-62
2022/02/22 12:17:16;;;;;;;1999.90;999.90;;;;;;;12.56;50.46;101013.59;15835168;28;20035;-62
2022/02/22 12:25:00;;;;;;;1999.90;999.90;;;;;;;12.91;48.39;100997.34;15857557;28;20109;-63
2022/02/22 12:32:36;;;;;;;1999.90;999.90;;;;;;;10.73;51.83;101003.22;15852341;28;20059;-62
2022/02/22 12:40:11;;;;;;;1999.90;999.90;;;;;;;12.05;49.09;100991.16;15853220;28;20047;-61
2022/02/22 12:47:44;;;;;;;1999.90;999.90;;;;;;;12.94;47.58;100997.50;15852168;28;20583;-61
2022/02/22 12:55:19;;;;;;;1999.90;999.90;;;;;;;14.60;41.84;101000.09;15825576;28;20104;-62
2022/02/22 13:02:52;;;;;;;1999.90;999.90;;;;;;;13.21;43.03;100996.13;15833661;28;20104;-60
2022/02/22 13:10:30;;;;;;;1999.90;999.90;;;;;;;13.23;42.65;100991.00;15819379;28;20420;-62
2022/02/22 13:18:16;;;;;;;1999.90;999.90;;;;;;;11.64;44.83;100988.97;15823114;28;20039;-63
2022/02/22 13:25:58;;;;;;;1999.90;999.90;;;;;;;13.40;42.32;101003.19;15825461;28;20385;-62
2022/02/22 13:33:31;;;;;;;1999.90;999.90;;;;;;;12.05;44.02;100984.75;15830466;28;20043;-61
2022/02/22 13:41:10;;;;;;;1999.90;999.90;;;;;;;11.55;43.99;100979.78;15815305;28;20089;-62
2022/02/22 13:48:42;;;;;;;1999.90;999.90;;;;;;;10.79;46.04;100982.38;15802466;28;20060;-62
2022/02/22 13:56:35;;;;;;;1999.90;999.90;;;;;;;10.16;47.33;100978.97;15837123;28;20062;-62
2022/02/22 14:04:28;;;;;;;1999.90;999.90;;;;;;;10.79;47.27;100969.22;15855086;28;20374;-62
2022/02/22 14:12:20;;;;;;;1999.90;999.90;;;;;;;11.08;46.72;100953.78;15820657;22;20527;-59
2022/02/22 14:20:12;;;;;;;1999.90;999.90;;;;;;;10.16;47.35;100969.78;15764599;28;20044;-61
2022/02/22 14:28:05;;;;;;;1999.90;999.90;;;;;;;10.18;47.87;100968.31;15743064;28;20052;-61
2022/02/22 14:36:10;;;;;;;1999.90;999.90;;;;;;;9.93;48.00;100960.69;15535665;28;20502;-61
2022/02/22 14:43:49;;;;;;;1999.90;999.90;;;;;;;10.12;48.15;100953.69;15737900;28;20648;-62
2022/02/22 14:51:40;;;;;;;1999.90;999.90;;;;;;;10.21;47.97;100948.13;15738534;28;20215;-63
2022/02/22 14:59:32;;;;;;;1999.90;999.90;;;;;;;9.92;48.68;100933.97;15723256;28;20052;-62
2022/02/22 15:07:28;;;;;;;1999.90;999.90;;;;;;;10.15;47.91;100899.25;15721545;28;20146;-62
2022/02/22 15:15:26;;;;;;;1999.90;999.90;;;;;;;9.86;48.14;100888.69;15737163;28;20459;-62
2022/02/22 15:23:18;;;;;;;1999.90;999.90;;;;;;;9.82;48.13;100877.38;15721828;28;20056;-62
2022/02/22 15:31:17;;;;;;;1999.90;999.90;;;;;;;9.82;48.81;100877.38;15709418;28;20128;-62
2022/02/22 15:39:08;;;;;;;1999.90;999.90;;;;;;;9.71;49.80;100891.94;15716391;28;20229;-61
2022/02/22 15:55:25;;;;;;;1999.90;999.90;;;;;;;9.78;50.46;100875.53;15486429;28;20395;-62
2022/02/22 16:03:36;;;;;;;1999.90;999.90;;;;;;;9.82;50.88;100860.66;15489718;28;20053;-61
2022/02/22 16:11:40;;;;;;;1999.90;999.90;;;;;;;9.71;51.50;100836.19;15481149;28;20065;-60
2022/02/22 16:20:00;;;;;;;1999.90;999.90;;;;;;;9.83;51.04;100823.28;15468357;28;20475;-61
2022/02/22 17:22:22;;;;;;;815.03;468.73;;;;;;;8.84;55.16;100743.19;15484543;28;20466;-61
2022/02/22 17:30:29;;;;;;;191.63;171.68;;;;;;;8.71;55.41;100732.97;15485007;28;20046;-61
2022/02/22 18:04:48;;;;;;;294.25;270.30;;;;;;;9.00;56.76;100701.84;15464375;28;20060;-61
2022/02/22 18:50:00;;;;;;;;;;;;;;;;;;;;;
2022/02/22 18:58:16;;;;;;;350.77;326.33;;;;;;;8.12;69.36;100638.59;15350862;29;20535;-60
2022/02/22 19:05:53;;;;;;;421.88;389.80;;;;;;;8.15;69.79;100623.25;15339286;29;20493;-59
2022/02/22 20:27:43;;;;;;;1271.20;675.33;;;;;;;7.64;79.60;100524.59;15315309;29;20037;-63
2022/02/22 21:40:24;;;;;;;;;;;;;;;;;;;;;
2022/02/22 22:44:00;;;;;;;;;;;;;;;;;;;;;
2022/02/22 23:02:17;;;;;;;762.78;640.40;;;;;;;9.10;81.41;100548.44;15351539;29;20035;-58
2022/02/22 23:28:42;;;;;;;431.75;397.65;;;;;;;8.97;73.99;100617.03;15383215;28;20085;-59
